East Orange, Vermont
Current Conditions -  °F | °C
As of 10:51 AM on Sunday 25 Jan 2015 (Local Time) from KMPV Reporting Station
Haze Haze  
Wind Chill: -5°   Ceiling: 2400
Heat Index: 12°   Visibility: 4mi
Dew Point:   Wind: 17mph
Humidity: 70%   Direction: 320°NW
Pressure: 29.68"   Gusts: 25mph
Location:  44.1344°N, 72.2538°W
Report Text: KMPV 251551Z AUTO 32015G22KT 4SM HZ OVC024 M11/M16 A2968 RMK AO2 UPB1457E07B37E41SNB07E16 SLP072 P0000 T11111156 $
Loading
Personal Weather Stations






























Interactive Weather Map New forecast layout! Learn more

10-Day Weather Forecast

Advertisements
Track Severe Weather on mobile